createdAt,value
2018-07-05T00:00:54.427Z,5.20
2018-07-05T00:03:34.301Z,5.60
2018-07-05T00:06:14.070Z,5.53
2018-07-05T00:08:53.947Z,5.20
2018-07-05T00:11:33.723Z,5.17
2018-07-05T00:14:13.860Z,5.20
2018-07-05T00:16:53.599Z,5.43
2018-07-05T00:19:33.547Z,5.40
2018-07-05T00:22:13.338Z,6.50
2018-07-05T00:24:52.997Z,6.17
2018-07-05T00:27:32.852Z,5.73
2018-07-05T00:30:12.827Z,5.30
2018-07-05T00:32:52.574Z,6.43
2018-07-05T00:35:32.538Z,5.43
2018-07-05T00:38:12.386Z,6.90
2018-07-05T00:40:52.501Z,5.33
2018-07-05T00:43:32.408Z,9.77
2018-07-05T00:46:12.190Z,5.77
2018-07-05T00:48:51.858Z,5.50
2018-07-05T00:51:31.731Z,5.63
2018-07-05T00:54:11.540Z,5.60
2018-07-05T00:56:51.383Z,5.20
2018-07-05T00:59:31.161Z,6.40
2018-07-05T01:02:11.059Z,5.53
2018-07-05T01:04:50.742Z,5.90
2018-07-05T01:07:30.805Z,6.20
2018-07-05T01:10:10.526Z,5.83
2018-07-05T01:12:50.404Z,5.93
2018-07-05T01:15:30.528Z,5.93
2018-07-05T01:18:10.360Z,7.00
2018-07-05T01:20:50.339Z,6.37
2018-07-05T01:23:30.262Z,6.30
2018-07-05T01:26:10.034Z,5.83
2018-07-05T01:28:50.029Z,5.97
2018-07-05T01:31:29.869Z,7.60
2018-07-05T01:34:09.662Z,6.03
2018-07-05T01:36:49.467Z,6.30
2018-07-05T01:39:29.219Z,6.70
2018-07-05T01:42:08.911Z,6.10
2018-07-05T01:44:48.740Z,6.40
2018-07-05T01:47:28.500Z,6.20
2018-07-05T01:50:08.334Z,6.33
2018-07-05T01:52:48.252Z,6.57
2018-07-05T01:55:28.036Z,5.87
2018-07-05T01:58:07.815Z,6.00
2018-07-05T02:00:48.088Z,6.20
2018-07-05T02:03:27.720Z,6.33
2018-07-05T02:06:07.657Z,5.80
2018-07-05T02:08:47.333Z,5.37
2018-07-05T02:11:27.430Z,6.50
2018-07-05T02:14:07.455Z,7.00
2018-07-05T02:16:47.237Z,6.17
2018-07-05T02:19:27.154Z,6.93
2018-07-05T02:22:07.193Z,6.60
2018-07-05T02:24:47.117Z,5.47
2018-07-05T02:27:26.889Z,6.80
2018-07-05T02:30:06.853Z,6.53
2018-07-05T02:32:46.789Z,8.33
2018-07-05T02:35:26.654Z,6.03
2018-07-05T02:38:11.787Z,7.17
2018-07-05T02:40:51.699Z,6.80
2018-07-05T02:43:31.589Z,6.57
2018-07-05T02:46:11.857Z,6.77
2018-07-05T02:48:51.746Z,7.17
2018-07-05T02:51:31.575Z,7.23
2018-07-05T02:54:11.324Z,7.20
2018-07-05T02:56:51.144Z,7.07
2018-07-05T02:59:31.300Z,6.83
2018-07-05T03:02:11.146Z,8.37
2018-07-05T03:04:51.139Z,8.07
2018-07-05T03:07:30.980Z,7.30
2018-07-05T03:10:11.209Z,8.10
2018-07-05T03:12:50.919Z,7.13
2018-07-05T03:15:30.872Z,7.60
2018-07-05T03:18:11.224Z,7.53
2018-07-05T03:20:51.210Z,7.10
2018-07-05T03:23:31.114Z,7.07
2018-07-05T03:26:10.765Z,7.03
2018-07-05T03:28:50.569Z,7.67
2018-07-05T03:31:30.309Z,7.80
2018-07-05T03:34:10.190Z,7.13
2018-07-05T03:36:50.064Z,6.63
2018-07-05T03:39:30.038Z,7.70
2018-07-05T03:42:09.827Z,7.33
2018-07-05T03:44:49.825Z,7.40
2018-07-05T03:47:30.012Z,7.47
2018-07-05T03:50:10.345Z,7.33
2018-07-05T03:52:50.220Z,6.57
2018-07-05T03:55:30.190Z,8.03
2018-07-05T03:58:10.028Z,7.73
2018-07-05T04:00:49.825Z,7.90
2018-07-05T04:03:29.921Z,7.57
2018-07-05T04:06:09.949Z,7.83
2018-07-05T04:08:49.723Z,7.33
2018-07-05T04:11:29.862Z,7.40
2018-07-05T04:14:10.017Z,8.03
2018-07-05T04:16:49.692Z,8.13
2018-07-05T04:19:29.574Z,7.30
2018-07-05T04:22:09.386Z,8.10
2018-07-05T04:24:49.154Z,6.60
2018-07-05T04:27:28.887Z,7.50
2018-07-05T04:30:08.657Z,7.40
2018-07-05T04:32:48.419Z,8.00
2018-07-05T04:35:28.081Z,7.10
2018-07-05T04:38:08.029Z,7.07
2018-07-05T04:40:47.902Z,7.33
2018-07-05T04:43:27.492Z,7.93
2018-07-05T04:46:07.145Z,7.57
2018-07-05T04:48:46.857Z,7.80
2018-07-05T04:51:26.727Z,7.93
2018-07-05T04:54:06.447Z,7.77
2018-07-05T04:56:46.063Z,7.83
2018-07-05T04:59:26.313Z,6.60
2018-07-05T05:02:06.082Z,8.67
2018-07-05T05:04:45.875Z,6.17
2018-07-05T05:07:25.629Z,7.87
2018-07-05T05:10:05.484Z,9.97
2018-07-05T05:12:45.271Z,9.93
2018-07-05T05:15:25.296Z,8.77
2018-07-05T05:18:05.132Z,8.40
2018-07-05T05:20:44.996Z,8.40
2018-07-05T05:23:24.907Z,9.40
2018-07-05T05:26:04.579Z,8.40
2018-07-05T05:28:44.519Z,9.67
2018-07-05T05:31:24.293Z,8.90
2018-07-05T05:34:04.103Z,7.77
2018-07-05T05:36:43.917Z,7.50
2018-07-05T05:39:23.547Z,9.30
2018-07-05T05:42:03.327Z,10.10
2018-07-05T05:44:43.385Z,9.40
2018-07-05T05:47:23.300Z,9.17
2018-07-05T05:50:03.367Z,9.70
2018-07-05T05:52:43.375Z,9.40
2018-07-05T05:55:23.234Z,9.13
2018-07-05T05:58:03.039Z,7.80
2018-07-05T06:00:43.207Z,9.43
2018-07-05T06:03:23.125Z,9.83
2018-07-05T06:06:03.542Z,8.07
2018-07-05T06:08:43.422Z,7.73
2018-07-05T06:11:23.464Z,7.20
2018-07-05T06:14:03.418Z,7.80
2018-07-05T06:16:43.207Z,7.80
2018-07-05T06:19:23.621Z,6.57
2018-07-05T06:22:03.768Z,6.73
2018-07-05T06:24:43.692Z,7.37
2018-07-05T06:27:23.523Z,7.13
2018-07-05T06:30:03.325Z,8.60
2018-07-05T06:32:42.965Z,7.10
2018-07-05T06:35:22.734Z,7.17
2018-07-05T06:38:02.723Z,8.00
2018-07-05T06:40:42.786Z,6.40
2018-07-05T06:43:22.711Z,6.60
2018-07-05T06:46:03.151Z,6.70
2018-07-05T06:48:42.950Z,6.27
2018-07-05T06:51:22.683Z,5.87
2018-07-05T06:54:02.391Z,5.90
2018-07-05T06:56:42.298Z,5.90
2018-07-05T06:59:21.962Z,5.67
2018-07-05T07:02:01.773Z,6.30
2018-07-05T07:04:41.565Z,5.80
2018-07-05T07:07:21.379Z,5.60
2018-07-05T07:10:01.570Z,6.25
2018-07-05T07:12:41.257Z,6.30
2018-07-05T07:15:21.039Z,6.20
2018-07-05T07:18:00.599Z,5.57
2018-07-05T07:20:40.504Z,5.43
2018-07-05T07:23:20.759Z,5.67
2018-07-05T07:26:00.485Z,4.13
2018-07-05T07:28:40.481Z,4.80
2018-07-05T07:31:21.191Z,5.00
2018-07-05T07:34:01.803Z,4.20
2018-07-05T07:36:41.981Z,4.37
2018-07-05T07:39:21.693Z,5.30
2018-07-05T07:41:50.642Z,4.90
2018-07-05T07:44:19.402Z,4.80
2018-07-05T07:46:47.646Z,5.03
2018-07-05T07:49:16.169Z,4.53
2018-07-05T07:51:43.620Z,4.40
2018-07-05T07:54:11.021Z,4.33
2018-07-05T07:56:38.608Z,5.00
2018-07-05T07:59:06.181Z,4.40
2018-07-05T08:01:34.885Z,4.40
2018-07-05T08:04:02.530Z,5.07
2018-07-05T08:06:30.026Z,4.07
2018-07-05T08:08:57.585Z,4.20
2018-07-05T08:11:25.708Z,4.80
2018-07-05T08:13:53.155Z,5.20
2018-07-05T08:16:20.690Z,6.20
2018-07-05T08:18:48.319Z,5.67
2018-07-05T08:21:15.730Z,5.40
2018-07-05T08:23:43.248Z,4.87
2018-07-05T08:26:10.824Z,6.63
2018-07-05T08:28:38.379Z,4.90
2018-07-05T08:31:05.804Z,7.63
2018-07-05T08:33:33.506Z,10.33
2018-07-05T08:36:00.961Z,4.80
2018-07-05T08:38:28.623Z,6.57
2018-07-05T08:40:56.236Z,4.23
2018-07-05T08:43:23.685Z,5.90
2018-07-05T08:45:51.351Z,5.10
2018-07-05T08:48:18.986Z,5.07
2018-07-05T08:50:46.412Z,4.23
2018-07-05T08:53:14.027Z,4.60
2018-07-05T08:55:41.508Z,6.30
2018-07-05T08:58:08.929Z,4.50
2018-07-05T09:00:36.356Z,4.27
2018-07-05T09:03:03.971Z,3.57
2018-07-05T09:05:31.559Z,3.77
2018-07-05T09:07:59.133Z,3.13
2018-07-05T09:10:26.733Z,4.50
2018-07-05T09:12:54.350Z,4.40
2018-07-05T09:15:21.910Z,4.70
2018-07-05T09:17:51.434Z,4.60
2018-07-05T09:20:18.857Z,3.90
2018-07-05T09:22:46.354Z,6.33
2018-07-05T09:25:13.823Z,4.67
2018-07-05T09:27:41.343Z,4.20
2018-07-05T09:30:09.003Z,3.67
2018-07-05T09:32:36.610Z,4.93
2018-07-05T09:35:04.027Z,4.37
2018-07-05T09:37:31.484Z,5.47
2018-07-05T09:39:58.938Z,3.20
2018-07-05T09:42:26.458Z,4.30
2018-07-05T09:44:54.127Z,3.90
2018-07-05T09:47:21.785Z,7.03
2018-07-05T09:49:49.425Z,4.43
2018-07-05T09:52:16.844Z,2.87
2018-07-05T09:54:44.362Z,5.63
2018-07-05T09:57:12.048Z,6.87
2018-07-05T09:59:40.847Z,5.40
2018-07-05T10:02:08.381Z,3.83
2018-07-05T10:04:36.047Z,4.43
2018-07-05T10:07:03.457Z,2.10
2018-07-05T10:09:30.934Z,3.47
2018-07-05T10:11:58.456Z,3.47
2018-07-05T10:14:25.952Z,4.30
2018-07-05T10:16:53.529Z,5.30
2018-07-05T10:19:21.117Z,3.07
2018-07-05T10:21:48.715Z,3.00
2018-07-05T10:24:16.198Z,2.93
2018-07-05T10:26:43.820Z,3.60
2018-07-05T10:29:23.766Z,3.03
2018-07-05T10:32:03.836Z,3.77
2018-07-05T10:34:31.419Z,2.20
2018-07-05T10:36:58.943Z,3.83
2018-07-05T10:39:26.477Z,4.40
2018-07-05T10:42:06.225Z,4.03
2018-07-05T10:44:46.149Z,3.17
2018-07-05T10:47:27.010Z,3.40
2018-07-05T10:50:07.030Z,3.40
2018-07-05T10:52:46.916Z,3.20
2018-07-05T10:55:26.724Z,2.90
2018-07-05T10:58:06.967Z,2.77
2018-07-05T11:00:46.902Z,3.50
2018-07-05T11:03:26.752Z,4.83
2018-07-05T11:06:06.562Z,3.93
2018-07-05T11:08:46.439Z,2.80
2018-07-05T11:11:26.270Z,2.73
2018-07-05T11:14:06.265Z,6.53
2018-07-05T11:16:46.256Z,3.40
2018-07-05T11:19:26.345Z,2.53
2018-07-05T11:22:06.003Z,3.00
2018-07-05T11:24:45.939Z,2.43
2018-07-05T11:27:25.745Z,4.47
2018-07-05T11:30:05.677Z,2.53
2018-07-05T11:32:45.505Z,2.57
2018-07-05T11:35:26.393Z,2.50
2018-07-05T11:38:05.973Z,6.30
2018-07-05T11:40:45.920Z,4.90
2018-07-05T11:43:25.712Z,3.60
2018-07-05T11:46:06.090Z,3.87
2018-07-05T11:48:45.774Z,4.87
2018-07-05T11:51:25.578Z,4.50
2018-07-05T11:54:05.218Z,3.10
2018-07-05T11:56:45.219Z,3.30
2018-07-05T11:59:25.057Z,2.37
2018-07-05T12:02:05.106Z,2.70
2018-07-05T12:04:45.019Z,2.40
2018-07-05T12:07:24.938Z,3.63
2018-07-05T12:10:04.757Z,2.30
2018-07-05T12:12:44.780Z,1.77
2018-07-05T12:15:24.420Z,1.93
2018-07-05T12:18:04.470Z,2.47
2018-07-05T12:20:44.217Z,2.97
2018-07-05T12:23:24.147Z,2.60
2018-07-05T12:26:03.825Z,3.30
2018-07-05T12:28:43.866Z,2.93
2018-07-05T12:31:23.709Z,3.33
2018-07-05T12:34:03.497Z,4.53
2018-07-05T12:36:43.291Z,3.30
2018-07-05T12:39:23.102Z,3.77
2018-07-05T12:42:02.849Z,3.63
2018-07-05T12:44:42.829Z,3.30
2018-07-05T12:47:22.629Z,4.00
2018-07-05T12:50:02.751Z,4.20
2018-07-05T12:52:42.588Z,3.67
2018-07-05T12:55:22.271Z,4.10
2018-07-05T12:58:02.078Z,3.27
2018-07-05T13:00:42.774Z,3.90
2018-07-05T13:03:22.718Z,4.30
2018-07-05T13:06:02.598Z,3.43
2018-07-05T13:08:42.376Z,4.27
2018-07-05T13:11:22.321Z,4.73
2018-07-05T13:14:02.144Z,4.07
2018-07-05T13:16:42.470Z,3.63
2018-07-05T13:19:22.333Z,3.60
2018-07-05T13:22:02.334Z,3.90
2018-07-05T13:24:42.022Z,3.13
2018-07-05T13:27:21.705Z,3.60
2018-07-05T13:30:01.601Z,3.20
2018-07-05T13:32:41.405Z,3.37
2018-07-05T13:35:21.185Z,5.07
2018-07-05T13:38:01.237Z,3.73
2018-07-05T13:40:41.190Z,4.00
2018-07-05T13:43:21.031Z,5.00
2018-07-05T13:46:00.697Z,4.10
2018-07-05T13:48:40.386Z,4.83
2018-07-05T13:51:20.289Z,3.50
2018-07-05T13:53:59.936Z,3.40
2018-07-05T13:56:39.972Z,2.77
2018-07-05T13:59:19.792Z,2.43
2018-07-05T14:01:59.526Z,2.10
2018-07-05T14:04:39.382Z,2.10
2018-07-05T14:07:19.594Z,1.97
2018-07-05T14:09:59.314Z,2.03
2018-07-05T14:12:38.915Z,1.80
2018-07-05T14:15:18.622Z,1.97
2018-07-05T14:17:58.465Z,2.13
2018-07-05T14:20:38.098Z,2.20
2018-07-05T14:23:18.051Z,2.00
2018-07-05T14:25:57.916Z,1.93
2018-07-05T14:28:37.626Z,2.30
2018-07-05T14:31:17.574Z,2.40
2018-07-05T14:33:57.347Z,2.30
2018-07-05T14:36:37.121Z,2.33
2018-07-05T14:39:17.105Z,5.47
2018-07-05T14:41:56.859Z,2.60
2018-07-05T14:44:36.685Z,2.30
2018-07-05T14:47:16.352Z,2.50
2018-07-05T14:49:56.173Z,2.30
2018-07-05T14:52:36.097Z,1.90
2018-07-05T14:55:18.225Z,2.83
2018-07-05T14:58:00.696Z,1.57
2018-07-05T15:00:40.844Z,2.27
2018-07-05T15:03:20.614Z,2.77
2018-07-05T15:06:00.366Z,2.63
2018-07-05T15:08:39.986Z,3.33
2018-07-05T15:11:19.895Z,2.60
2018-07-05T15:13:59.657Z,3.10
2018-07-05T15:16:39.621Z,2.03
2018-07-05T15:19:19.886Z,2.93
2018-07-05T15:21:59.494Z,3.40
2018-07-05T15:24:39.291Z,3.03
2018-07-05T15:27:19.061Z,3.60
2018-07-05T15:29:58.799Z,3.03
2018-07-05T15:32:38.446Z,3.43
2018-07-05T15:35:18.286Z,2.90
2018-07-05T15:37:57.955Z,3.73
2018-07-05T15:40:37.783Z,3.50
2018-07-05T15:43:17.592Z,3.50
2018-07-05T15:45:57.451Z,3.23
2018-07-05T15:48:37.286Z,2.63
2018-07-05T15:51:17.137Z,3.77
2018-07-05T15:53:57.076Z,2.93
2018-07-05T15:56:37.178Z,3.03
2018-07-05T15:59:16.893Z,4.60
2018-07-05T16:01:56.713Z,4.70
2018-07-05T16:04:36.537Z,3.87
2018-07-05T16:07:17.387Z,4.10
2018-07-05T16:09:57.203Z,4.30
2018-07-05T16:12:36.922Z,4.67
2018-07-05T16:15:16.735Z,5.20
2018-07-05T16:17:56.665Z,4.97
2018-07-05T16:20:36.665Z,5.53
2018-07-05T16:23:16.443Z,5.43
2018-07-05T16:25:56.109Z,5.17
2018-07-05T16:28:35.966Z,5.07
2018-07-05T16:31:16.025Z,4.37
2018-07-05T16:33:55.966Z,4.30
2018-07-05T16:36:35.938Z,5.67
2018-07-05T16:39:15.871Z,5.90
2018-07-05T16:41:55.836Z,5.10
2018-07-05T16:44:35.743Z,5.00
2018-07-05T16:47:15.564Z,5.83
2018-07-05T16:49:55.339Z,6.30
2018-07-05T16:52:35.230Z,5.03
2018-07-05T16:55:15.010Z,4.77
2018-07-05T16:57:54.729Z,5.97
2018-07-05T17:00:34.630Z,3.97
2018-07-05T17:03:14.366Z,6.10
2018-07-05T17:05:54.071Z,3.97
2018-07-05T17:08:33.861Z,3.97
2018-07-05T17:11:13.728Z,3.67
2018-07-05T17:13:53.514Z,3.90
2018-07-05T17:16:33.313Z,4.13
2018-07-05T17:19:13.011Z,4.00
2018-07-05T17:21:52.771Z,4.17
2018-07-05T17:24:32.541Z,3.73
2018-07-05T17:27:12.376Z,5.50
2018-07-05T17:29:52.190Z,4.70
2018-07-05T17:32:31.905Z,5.40
2018-07-05T17:35:11.672Z,5.20
2018-07-05T17:37:51.507Z,5.10
2018-07-05T17:40:31.358Z,5.00
2018-07-05T17:43:11.189Z,4.80
2018-07-05T17:45:51.348Z,6.03
2018-07-05T17:48:31.298Z,7.57
2018-07-05T17:51:11.196Z,5.87
2018-07-05T17:53:51.181Z,5.40
2018-07-05T17:56:30.985Z,6.17
2018-07-05T17:59:10.698Z,8.30
2018-07-05T18:01:50.631Z,8.07
2018-07-05T18:04:30.489Z,7.67
2018-07-05T18:07:10.328Z,6.43
2018-07-05T18:09:50.110Z,6.30
2018-07-05T18:12:29.857Z,6.07
2018-07-05T18:15:09.547Z,5.77
2018-07-05T18:17:52.588Z,5.60
2018-07-05T18:20:32.683Z,5.67
2018-07-05T18:23:12.463Z,10.57
2018-07-05T18:25:52.217Z,8.50
2018-07-05T18:28:31.927Z,7.37
2018-07-05T18:31:11.939Z,7.07
2018-07-05T18:33:51.839Z,6.13
2018-07-05T18:36:31.394Z,5.03
2018-07-05T18:39:11.240Z,6.70
2018-07-05T18:41:51.082Z,6.53
2018-07-05T18:44:31.106Z,6.73
2018-07-05T18:47:10.922Z,7.27
2018-07-05T18:49:50.717Z,6.77
2018-07-05T18:52:30.405Z,7.37
2018-07-05T18:55:10.461Z,6.53
2018-07-05T18:57:50.192Z,7.20
2018-07-05T19:00:30.310Z,6.90
2018-07-05T19:03:10.197Z,7.37
2018-07-05T19:05:50.179Z,9.73
2018-07-05T19:08:29.947Z,8.13
2018-07-05T19:11:09.979Z,8.30
2018-07-05T19:13:49.671Z,6.83
2018-07-05T19:16:29.650Z,7.57
2018-07-05T19:19:09.437Z,6.83
2018-07-05T19:21:49.436Z,7.80
2018-07-05T19:24:29.231Z,7.07
2018-07-05T19:27:09.007Z,7.10
2018-07-05T19:29:49.025Z,7.30
2018-07-05T19:32:28.848Z,7.40
2018-07-05T19:35:08.505Z,8.27
2018-07-05T19:37:48.406Z,8.50
2018-07-05T19:40:28.489Z,7.60
2018-07-05T19:43:08.217Z,7.50
2018-07-05T19:45:47.929Z,6.70
2018-07-05T19:48:27.782Z,8.20
2018-07-05T19:51:07.615Z,7.20
2018-07-05T19:53:47.565Z,7.90
2018-07-05T19:56:27.409Z,7.57
2018-07-05T19:59:07.361Z,7.40
2018-07-05T20:01:47.231Z,8.30
2018-07-05T20:04:26.992Z,8.00
2018-07-05T20:07:06.939Z,8.37
2018-07-05T20:09:46.774Z,8.50
2018-07-05T20:12:26.494Z,8.30
2018-07-05T20:15:06.386Z,8.97
2018-07-05T20:17:46.057Z,8.50
2018-07-05T20:20:26.024Z,8.10
2018-07-05T20:23:05.956Z,8.77
2018-07-05T20:25:45.936Z,9.40
2018-07-05T20:28:25.814Z,9.17
2018-07-05T20:31:05.690Z,8.07
2018-07-05T20:33:45.557Z,9.57
2018-07-05T20:36:25.369Z,10.00
2018-07-05T20:39:06.076Z,9.40
2018-07-05T20:41:45.990Z,10.07
2018-07-05T20:44:25.714Z,10.17
2018-07-05T20:47:05.492Z,11.50
2018-07-05T20:49:45.265Z,11.30
2018-07-05T20:52:25.077Z,11.30
2018-07-05T20:55:04.840Z,10.93
2018-07-05T20:57:44.718Z,12.73
2018-07-05T21:00:24.590Z,12.13
2018-07-05T21:03:04.390Z,12.87
2018-07-05T21:05:44.249Z,11.73
2018-07-05T21:08:24.071Z,13.90
2018-07-05T21:11:03.885Z,12.40
2018-07-05T21:13:43.651Z,12.67
2018-07-05T21:16:23.332Z,11.80
2018-07-05T21:19:03.164Z,13.70
2018-07-05T21:21:42.874Z,12.33
2018-07-05T21:24:22.703Z,12.67
2018-07-05T21:27:02.930Z,12.73
2018-07-05T21:29:42.699Z,14.40
2018-07-05T21:32:22.447Z,11.33
2018-07-05T21:35:02.252Z,12.10
2018-07-05T21:37:42.220Z,13.17
2018-07-05T21:40:22.211Z,11.50
2018-07-05T21:43:02.022Z,11.90
2018-07-05T21:45:41.998Z,11.90
2018-07-05T21:48:21.873Z,13.33
2018-07-05T21:51:01.739Z,11.57
2018-07-05T21:53:41.658Z,13.20
2018-07-05T21:56:21.465Z,13.80
2018-07-05T21:59:01.395Z,12.93
2018-07-05T22:01:41.326Z,12.07
2018-07-05T22:04:21.102Z,11.27
2018-07-05T22:07:00.740Z,11.83
2018-07-05T22:09:40.624Z,12.50
2018-07-05T22:12:20.401Z,10.87
2018-07-05T22:15:00.247Z,12.77
2018-07-05T22:17:45.271Z,12.50
2018-07-05T22:20:30.155Z,11.83
2018-07-05T22:23:15.199Z,11.07
2018-07-05T22:26:00.179Z,9.90
2018-07-05T22:28:45.260Z,10.97
2018-07-05T22:31:30.160Z,9.50
2018-07-05T22:34:09.939Z,10.60
2018-07-05T22:36:49.691Z,10.00
2018-07-05T22:39:29.586Z,11.70
2018-07-05T22:42:09.469Z,10.40
2018-07-05T22:44:49.281Z,10.97
2018-07-05T22:47:29.506Z,9.50
2018-07-05T22:50:09.332Z,11.13
2018-07-05T22:52:49.312Z,9.90
2018-07-05T22:55:29.029Z,9.93
2018-07-05T22:58:08.754Z,10.70
2018-07-05T23:00:48.645Z,10.60
2018-07-05T23:03:28.444Z,10.20
2018-07-05T23:06:08.233Z,10.10
2018-07-05T23:08:48.031Z,10.43
2018-07-05T23:11:27.901Z,10.50
2018-07-05T23:14:07.734Z,10.77
2018-07-05T23:16:47.561Z,9.57
2018-07-05T23:19:27.363Z,9.30
2018-07-05T23:22:07.087Z,10.37
2018-07-05T23:24:47.006Z,10.37
2018-07-05T23:27:27.466Z,10.50
2018-07-05T23:30:07.224Z,10.97
2018-07-05T23:32:47.622Z,9.70
2018-07-05T23:35:27.535Z,10.20
2018-07-05T23:38:07.374Z,10.50
2018-07-05T23:40:47.088Z,10.93
2018-07-05T23:43:27.265Z,11.33
2018-07-05T23:46:07.298Z,11.30
2018-07-05T23:48:47.320Z,11.60
2018-07-05T23:51:27.206Z,11.53
2018-07-05T23:54:07.266Z,14.90
2018-07-05T23:56:47.735Z,12.90
2018-07-05T23:59:27.982Z,13.10
